Time;durP1;ratioP1;P1;durP2;ratioP2;P2;SDS_P1;SDS_P2;PMS_P1;PMS_P2;Temp;Humidity;BMP_temperature;BMP_pressure;BME280_temperature;BME280_humidity;BME280_pressure;Samples;Min_cycle;Max_cycle;Signal;HPM_P1;HPM_P2
2022/12/20 00:00:28;;;;;;;8.07;4.00;;;;;;;;;;6099276;19;20010;-71
2022/12/20 00:02:33;;;;;;;8.65;4.28;;;;;;;;;;6101505;19;20473;-71
2022/12/20 00:04:38;;;;;;;7.65;4.20;;;;;;;;;;6104024;19;20018;-71
2022/12/20 00:06:45;;;;;;;9.20;4.95;;;;;;;;;;6104856;19;20002;-71
2022/12/20 00:08:55;;;;;;;8.98;4.65;;;;;;;;;;6096762;19;20042;-71
2022/12/20 00:11:02;;;;;;;10.88;4.68;;;;;;;;;;6099754;19;20473;-71
2022/12/20 00:13:07;;;;;;;10.05;4.45;;;;;;;;;;6101081;19;20316;-71
2022/12/20 00:15:12;;;;;;;8.27;4.40;;;;;;;;;;6103127;19;20082;-71
2022/12/20 00:17:17;;;;;;;11.27;4.93;;;;;;;;;;6101213;19;20481;-71
2022/12/20 00:19:22;;;;;;;10.77;4.38;;;;;;;;;;6102097;19;20034;-71
2022/12/20 00:21:27;;;;;;;8.65;4.15;;;;;;;;;;6102729;19;21419;-71
2022/12/20 00:23:35;;;;;;;8.73;4.38;;;;;;;;;;6100648;19;22450;-71
2022/12/20 00:25:41;;;;;;;8.73;4.72;;;;;;;;;;6100542;19;20016;-71
2022/12/20 00:27:46;;;;;;;9.13;5.13;;;;;;;;;;6099593;19;20352;-71
2022/12/20 00:29:50;;;;;;;8.48;4.40;;;;;;;;;;6101984;19;20010;-71
2022/12/20 00:31:55;;;;;;;9.50;4.53;;;;;;;;;;6103904;19;20010;-71
2022/12/20 00:34:00;;;;;;;9.52;4.72;;;;;;;;;;6098559;19;20471;-71
2022/12/20 00:36:06;;;;;;;8.95;4.68;;;;;;;;;;6100540;19;20019;-71
2022/12/20 00:38:11;;;;;;;8.85;4.70;;;;;;;;;;6100934;19;20017;-71
2022/12/20 00:40:19;;;;;;;11.10;4.80;;;;;;;;;;6101041;19;20302;-72
2022/12/20 00:42:24;;;;;;;8.52;4.00;;;;;;;;;;6098540;19;20123;-71
2022/12/20 00:44:29;;;;;;;9.38;4.13;;;;;;;;;;6099306;19;20011;-72
2022/12/20 00:46:34;;;;;;;9.45;4.47;;;;;;;;;;6097968;19;20010;-70
2022/12/20 00:48:39;;;;;;;10.57;4.80;;;;;;;;;;6100016;19;20518;-72
2022/12/20 00:50:44;;;;;;;8.27;4.70;;;;;;;;;;6099707;19;20011;-72
2022/12/20 00:52:49;;;;;;;8.95;4.50;;;;;;;;;;6098382;19;20015;-72
2022/12/20 00:54:54;;;;;;;8.90;4.38;;;;;;;;;;6096447;19;20011;-71
2022/12/20 00:57:01;;;;;;;8.40;4.95;;;;;;;;;;6100344;19;20431;-71
2022/12/20 00:59:06;;;;;;;8.57;4.63;;;;;;;;;;6102153;19;20025;-72
2022/12/20 01:01:18;;;;;;;11.80;5.00;;;;;;;;;;6095211;19;20007;-71
2022/12/20 01:03:23;;;;;;;8.73;4.80;;;;;;;;;;6101784;19;20461;-71
2022/12/20 01:05:28;;;;;;;10.20;4.70;;;;;;;;;;6098280;19;20577;-71
2022/12/20 01:07:34;;;;;;;7.90;4.10;;;;;;;;;;6098820;19;20041;-71
2022/12/20 01:09:38;;;;;;;8.30;5.07;;;;;;;;;;6097591;19;20022;-71
2022/12/20 01:11:44;;;;;;;9.18;4.75;;;;;;;;;;6100160;19;20474;-71
2022/12/20 01:13:53;;;;;;;9.45;4.22;;;;;;;;;;6097110;19;20011;-72
2022/12/20 01:15:58;;;;;;;9.15;4.47;;;;;;;;;;6099129;19;20288;-72
2022/12/20 01:18:02;;;;;;;7.35;4.38;;;;;;;;;;6097957;19;20482;-71
2022/12/20 01:20:09;;;;;;;7.53;4.38;;;;;;;;;;6099689;19;20333;-71
2022/12/20 01:22:15;;;;;;;9.32;4.97;;;;;;;;;;6098194;19;20704;-71
2022/12/20 01:24:21;;;;;;;8.73;4.53;;;;;;;;;;6101129;19;20042;-72
2022/12/20 01:26:28;;;;;;;8.20;4.13;;;;;;;;;;6097299;19;20332;-72
2022/12/20 01:28:37;;;;;;;9.60;4.57;;;;;;;;;;6097884;19;20015;-72
2022/12/20 01:30:44;;;;;;;8.25;3.72;;;;;;;;;;6097989;19;20006;-72
2022/12/20 01:32:49;;;;;;;9.98;5.13;;;;;;;;;;6100248;19;20496;-72
2022/12/20 01:34:55;;;;;;;9.43;4.95;;;;;;;;;;6099987;19;20007;-71
2022/12/20 01:37:00;;;;;;;9.00;4.70;;;;;;;;;;6102314;19;20015;-71
2022/12/20 01:39:09;;;;;;;8.35;4.28;;;;;;;;;;6102410;19;20014;-71
2022/12/20 01:41:16;;;;;;;7.65;4.30;;;;;;;;;;6101587;19;20014;-71
2022/12/20 01:43:21;;;;;;;9.65;4.97;;;;;;;;;;6102543;19;20093;-71
2022/12/20 01:45:29;;;;;;;8.38;4.35;;;;;;;;;;6098266;19;20018;-71
2022/12/20 01:47:38;;;;;;;9.88;4.90;;;;;;;;;;6098127;19;20471;-73
2022/12/20 01:49:46;;;;;;;11.07;4.97;;;;;;;;;;6100098;19;20014;-71
2022/12/20 01:51:52;;;;;;;8.63;5.15;;;;;;;;;;6098120;19;20089;-72
2022/12/20 01:54:00;;;;;;;11.07;5.53;;;;;;;;;;6096091;19;20010;-71
2022/12/20 01:56:07;;;;;;;9.05;4.82;;;;;;;;;;6097556;19;20003;-71
2022/12/20 01:58:13;;;;;;;10.15;5.07;;;;;;;;;;6094585;19;20025;-72
2022/12/20 02:00:19;;;;;;;11.20;5.85;;;;;;;;;;6098312;19;20011;-72
2022/12/20 02:02:24;;;;;;;8.77;5.65;;;;;;;;;;6095877;19;20006;-71
2022/12/20 02:04:34;;;;;;;8.50;4.85;;;;;;;;;;6097910;19;20485;-72
2022/12/20 02:06:39;;;;;;;9.93;5.57;;;;;;;;;;6099424;19;20034;-72
2022/12/20 02:08:45;;;;;;;10.50;5.35;;;;;;;;;;6097123;19;20041;-72
2022/12/20 02:11:04;;;;;;;11.13;5.38;;;;;;;;;;6098197;19;20023;-73
2022/12/20 02:13:14;;;;;;;8.88;5.88;;;;;;;;;;6096046;19;20006;-72
2022/12/20 02:15:29;;;;;;;12.52;6.32;;;;;;;;;;6097823;19;20122;-72
2022/12/20 02:17:44;;;;;;;8.90;4.95;;;;;;;;;;6097462;19;20124;-72
2022/12/20 02:20:14;;;;;;;10.43;5.03;;;;;;;;;;6097064;19;20045;-72
2022/12/20 02:22:26;;;;;;;9.57;5.85;;;;;;;;;;6097365;19;20350;-72
2022/12/20 02:24:50;;;;;;;12.05;5.80;;;;;;;;;;6098008;19;20333;-72
2022/12/20 02:27:17;;;;;;;9.65;6.43;;;;;;;;;;6095322;19;20014;-72
2022/12/20 02:29:26;;;;;;;12.43;6.72;;;;;;;;;;6101128;19;20013;-72
2022/12/20 02:31:38;;;;;;;10.45;5.07;;;;;;;;;;6100881;19;20014;-72
2022/12/20 02:33:44;;;;;;;10.50;5.63;;;;;;;;;;6100026;19;20011;-72
2022/12/20 02:35:49;;;;;;;11.18;5.30;;;;;;;;;;6101304;19;20010;-72
2022/12/20 02:37:55;;;;;;;12.13;6.10;;;;;;;;;;6096165;19;20057;-71
2022/12/20 02:40:00;;;;;;;11.10;5.95;;;;;;;;;;6097960;19;20015;-72
2022/12/20 02:42:07;;;;;;;9.07;5.38;;;;;;;;;;6098856;19;20009;-71
2022/12/20 02:46:35;;;;;;;12.30;5.70;;;;;;;;;;6096634;19;20042;-72
2022/12/20 02:48:41;;;;;;;14.13;5.75;;;;;;;;;;6098371;19;20021;-72
2022/12/20 02:50:47;;;;;;;12.85;5.68;;;;;;;;;;6097470;19;20018;-71
2022/12/20 02:52:53;;;;;;;10.73;5.25;;;;;;;;;;6091458;19;20017;-70
2022/12/20 02:54:57;;;;;;;11.68;5.03;;;;;;;;;;6098394;19;20010;-71
2022/12/20 02:57:05;;;;;;;10.00;5.72;;;;;;;;;;6098474;19;20624;-71
2022/12/20 02:59:15;;;;;;;9.30;4.78;;;;;;;;;;6096600;19;20010;-71
2022/12/20 03:01:24;;;;;;;11.10;6.20;;;;;;;;;;6097049;19;20074;-71
2022/12/20 03:03:33;;;;;;;12.25;5.20;;;;;;;;;;6097228;19;20006;-71
2022/12/20 03:05:41;;;;;;;8.77;4.85;;;;;;;;;;6098083;19;20011;-71
2022/12/20 03:07:46;;;;;;;11.23;5.28;;;;;;;;;;6097115;19;20023;-71
2022/12/20 03:09:51;;;;;;;10.65;5.35;;;;;;;;;;6095957;19;20408;-71
2022/12/20 03:11:56;;;;;;;10.63;5.38;;;;;;;;;;6097576;19;20053;-71
2022/12/20 03:14:00;;;;;;;8.68;5.28;;;;;;;;;;6096994;19;20616;-71
2022/12/20 03:16:05;;;;;;;8.98;5.13;;;;;;;;;;6096052;19;20011;-71
2022/12/20 03:18:11;;;;;;;9.10;5.13;;;;;;;;;;6098338;19;20010;-71
2022/12/20 03:20:18;;;;;;;8.80;5.13;;;;;;;;;;6097580;19;20021;-71
2022/12/20 03:22:23;;;;;;;7.53;4.80;;;;;;;;;;6095976;19;20028;-71
2022/12/20 03:24:29;;;;;;;9.57;4.75;;;;;;;;;;6097283;19;21060;-70
2022/12/20 03:26:34;;;;;;;13.88;5.57;;;;;;;;;;6095166;19;20078;-71
2022/12/20 03:28:39;;;;;;;9.90;4.80;;;;;;;;;;6097576;19;20010;-72
2022/12/20 03:30:44;;;;;;;10.52;4.70;;;;;;;;;;6092403;19;20405;-72
2022/12/20 03:32:49;;;;;;;8.75;4.65;;;;;;;;;;6095516;19;20022;-72
2022/12/20 03:34:54;;;;;;;11.55;4.75;;;;;;;;;;6091851;19;20031;-72
2022/12/20 03:37:01;;;;;;;8.32;4.82;;;;;;;;;;6097229;19;20600;-72
2022/12/20 03:39:06;;;;;;;8.00;4.20;;;;;;;;;;6095413;19;20447;-71
2022/12/20 03:41:11;;;;;;;8.48;4.47;;;;;;;;;;6094801;19;20007;-72
2022/12/20 03:43:16;;;;;;;8.00;4.55;;;;;;;;;;6096626;19;20018;-72
2022/12/20 03:45:20;;;;;;;7.82;4.07;;;;;;;;;;6096447;19;20013;-72
2022/12/20 03:47:25;;;;;;;8.20;4.68;;;;;;;;;;6096309;19;20037;-72
2022/12/20 03:49:30;;;;;;;8.85;4.25;;;;;;;;;;6094598;19;20010;-71
2022/12/20 03:51:35;;;;;;;9.73;4.53;;;;;;;;;;6093659;19;20078;-71
2022/12/20 03:53:42;;;;;;;9.98;4.40;;;;;;;;;;6095050;19;21295;-72
2022/12/20 03:55:47;;;;;;;11.55;4.45;;;;;;;;;;6094902;19;20006;-71
2022/12/20 03:57:51;;;;;;;7.60;3.97;;;;;;;;;;6094922;19;20490;-71
2022/12/20 03:59:56;;;;;;;8.70;4.25;;;;;;;;;;6096306;19;20458;-72
2022/12/20 04:02:01;;;;;;;9.02;4.40;;;;;;;;;;6093436;19;20007;-73
2022/12/20 04:04:07;;;;;;;11.50;4.78;;;;;;;;;;6095583;19;21097;-71
2022/12/20 04:06:11;;;;;;;9.88;4.72;;;;;;;;;;6096882;19;20109;-72
2022/12/20 04:08:16;;;;;;;7.32;4.30;;;;;;;;;;6095281;19;20006;-71
2022/12/20 04:10:23;;;;;;;10.00;4.50;;;;;;;;;;6095301;19;20025;-71
2022/12/20 04:12:28;;;;;;;10.32;4.32;;;;;;;;;;6095658;19;20007;-71
2022/12/20 04:14:33;;;;;;;10.68;5.13;;;;;;;;;;6095123;19;20020;-71
2022/12/20 04:16:37;;;;;;;7.28;3.70;;;;;;;;;;6093465;19;20018;-71
2022/12/20 04:18:42;;;;;;;8.20;4.13;;;;;;;;;;6093844;19;20615;-71
2022/12/20 04:20:47;;;;;;;10.10;4.82;;;;;;;;;;6099423;19;20070;-71
2022/12/20 04:22:53;;;;;;;7.53;3.92;;;;;;;;;;6102667;19;20303;-71
2022/12/20 04:24:58;;;;;;;9.10;4.55;;;;;;;;;;6100455;19;20089;-72
2022/12/20 04:27:06;;;;;;;8.07;4.63;;;;;;;;;;6103366;19;20461;-71
2022/12/20 04:29:11;;;;;;;10.02;4.68;;;;;;;;;;6101422;19;20069;-71
2022/12/20 04:31:15;;;;;;;10.75;5.18;;;;;;;;;;6099448;19;20056;-71
2022/12/20 04:33:29;;;;;;;10.65;5.38;;;;;;;;;;6101736;19;20541;-71
2022/12/20 04:35:34;;;;;;;10.32;5.25;;;;;;;;;;6098375;19;20662;-71
2022/12/20 04:37:39;;;;;;;9.73;5.20;;;;;;;;;;6100965;19;20021;-72
2022/12/20 04:39:44;;;;;;;12.82;5.28;;;;;;;;;;6101863;19;20766;-71
2022/12/20 04:41:49;;;;;;;8.68;4.95;;;;;;;;;;6099930;19;20010;-71
2022/12/20 04:43:58;;;;;;;9.38;5.22;;;;;;;;;;6098999;19;20007;-72
2022/12/20 04:46:03;;;;;;;9.75;4.72;;;;;;;;;;6098739;19;20022;-71
2022/12/20 04:48:08;;;;;;;8.88;5.10;;;;;;;;;;6097961;19;20045;-72
2022/12/20 04:50:33;;;;;;;9.07;4.93;;;;;;;;;;6101826;19;20015;-71
2022/12/20 04:54:55;;;;;;;10.00;4.53;;;;;;;;;;6096662;19;20011;-72
2022/12/20 04:57:00;;;;;;;8.43;4.65;;;;;;;;;;6099286;19;20021;-70
2022/12/20 04:59:07;;;;;;;8.88;4.40;;;;;;;;;;6098849;19;20019;-71
2022/12/20 05:01:12;;;;;;;8.30;4.72;;;;;;;;;;6099479;19;20038;-72
2022/12/20 05:03:17;;;;;;;8.65;4.90;;;;;;;;;;6100012;19;20768;-71
2022/12/20 05:05:22;;;;;;;9.00;5.00;;;;;;;;;;6099778;19;20517;-72
2022/12/20 05:07:28;;;;;;;7.57;4.57;;;;;;;;;;6098503;19;20011;-73
2022/12/20 05:09:33;;;;;;;9.35;4.82;;;;;;;;;;6100227;19;20010;-72
2022/12/20 05:11:38;;;;;;;8.77;4.20;;;;;;;;;;6099689;19;20091;-72
2022/12/20 05:13:43;;;;;;;8.77;4.15;;;;;;;;;;6097401;19;20009;-71
2022/12/20 05:15:52;;;;;;;8.05;4.80;;;;;;;;;;6100269;19;20011;-71
2022/12/20 05:17:58;;;;;;;8.52;4.38;;;;;;;;;;6099326;19;20077;-71
2022/12/20 05:20:03;;;;;;;9.05;4.72;;;;;;;;;;6100352;19;20301;-71
2022/12/20 05:26:57;;;;;;;10.48;4.43;;;;;;;;;;6090426;19;20007;-72
2022/12/20 05:29:02;;;;;;;9.55;4.97;;;;;;;;;;6095877;19;20663;-72
2022/12/20 05:31:09;;;;;;;8.63;4.63;;;;;;;;;;6098219;19;20010;-72
2022/12/20 05:33:14;;;;;;;8.00;4.18;;;;;;;;;;6100604;19;20018;-72
2022/12/20 05:35:19;;;;;;;8.70;4.03;;;;;;;;;;6102503;19;20033;-73
2022/12/20 05:37:24;;;;;;;9.32;4.50;;;;;;;;;;6100826;19;20070;-73
2022/12/20 05:39:29;;;;;;;10.30;4.88;;;;;;;;;;6101371;19;20031;-72
2022/12/20 05:41:34;;;;;;;11.13;4.95;;;;;;;;;;6102524;19;20042;-72
2022/12/20 05:43:39;;;;;;;11.18;4.90;;;;;;;;;;6101209;19;20014;-72
2022/12/20 05:45:47;;;;;;;11.60;4.80;;;;;;;;;;6102068;19;20371;-71
2022/12/20 05:47:55;;;;;;;11.90;5.13;;;;;;;;;;6099548;19;20013;-71
2022/12/20 05:49:59;;;;;;;11.07;5.18;;;;;;;;;;6098812;19;20017;-71
2022/12/20 05:52:05;;;;;;;9.38;5.20;;;;;;;;;;6096950;19;20214;-71
2022/12/20 05:54:10;;;;;;;10.18;5.10;;;;;;;;;;6096706;19;20567;-71
2022/12/20 05:56:15;;;;;;;8.63;4.65;;;;;;;;;;6097241;19;20006;-71
2022/12/20 05:58:20;;;;;;;11.18;5.25;;;;;;;;;;6099178;19;20011;-71
2022/12/20 06:00:25;;;;;;;11.35;5.07;;;;;;;;;;6095059;19;20367;-71
2022/12/20 06:02:30;;;;;;;7.85;3.92;;;;;;;;;;6098290;19;20014;-71
2022/12/20 06:04:39;;;;;;;9.70;5.25;;;;;;;;;;6096886;19;20011;-71
2022/12/20 06:06:44;;;;;;;8.63;4.50;;;;;;;;;;6097455;19;20070;-71
2022/12/20 06:08:49;;;;;;;10.32;4.97;;;;;;;;;;6097101;19;20543;-71
2022/12/20 06:10:54;;;;;;;10.10;4.57;;;;;;;;;;6097369;19;20011;-70
2022/12/20 06:12:59;;;;;;;11.73;4.97;;;;;;;;;;6098623;19;20010;-70
2022/12/20 06:15:04;;;;;;;9.57;5.05;;;;;;;;;;6097585;19;20046;-70
2022/12/20 06:17:10;;;;;;;10.43;4.78;;;;;;;;;;6096618;19;20013;-71
2022/12/20 06:19:15;;;;;;;11.35;4.88;;;;;;;;;;6098010;19;20014;-71
2022/12/20 06:21:28;;;;;;;10.07;5.22;;;;;;;;;;6099484;19;20427;-71
2022/12/20 06:23:33;;;;;;;7.93;4.60;;;;;;;;;;6094785;19;20348;-71
2022/12/20 06:25:38;;;;;;;8.77;4.55;;;;;;;;;;6097503;19;20023;-71
2022/12/20 06:27:44;;;;;;;8.32;4.30;;;;;;;;;;6098750;19;20099;-71
2022/12/20 06:29:53;;;;;;;12.52;4.45;;;;;;;;;;6099621;19;20042;-70
2022/12/20 06:31:58;;;;;;;8.48;4.50;;;;;;;;;;6099316;19;20420;-70
2022/12/20 06:34:03;;;;;;;7.07;4.00;;;;;;;;;;6097219;19;20007;-71
2022/12/20 06:36:08;;;;;;;7.18;3.88;;;;;;;;;;6097239;19;20006;-71
2022/12/20 06:38:16;;;;;;;9.00;4.63;;;;;;;;;;6098369;19;20078;-71
2022/12/20 06:40:21;;;;;;;6.43;3.95;;;;;;;;;;6096470;19;20013;-70
2022/12/20 06:42:25;;;;;;;9.25;4.70;;;;;;;;;;6097954;19;20019;-72
2022/12/20 06:44:30;;;;;;;9.52;4.68;;;;;;;;;;6095615;19;20021;-71
2022/12/20 06:46:35;;;;;;;8.02;4.05;;;;;;;;;;6095561;19;20018;-71
2022/12/20 06:48:43;;;;;;;8.75;4.55;;;;;;;;;;6096352;19;20054;-70
2022/12/20 06:50:49;;;;;;;9.73;4.72;;;;;;;;;;6096023;19;20442;-71
2022/12/20 06:52:59;;;;;;;9.25;4.30;;;;;;;;;;6092079;19;20506;-71
2022/12/20 06:55:07;;;;;;;7.07;4.00;;;;;;;;;;6092310;19;20050;-70
2022/12/20 06:57:12;;;;;;;8.43;3.90;;;;;;;;;;6097957;19;25545;-70
2022/12/20 06:59:16;;;;;;;9.43;4.38;;;;;;;;;;6096890;19;20463;-70
2022/12/20 07:01:21;;;;;;;10.10;4.55;;;;;;;;;;6099736;19;20006;-70
2022/12/20 07:03:26;;;;;;;9.25;4.25;;;;;;;;;;6098251;19;20013;-71
2022/12/20 07:05:31;;;;;;;7.28;4.03;;;;;;;;;;6098821;19;20018;-70
2022/12/20 07:07:38;;;;;;;8.75;4.05;;;;;;;;;;6098869;19;20078;-71
2022/12/20 07:09:48;;;;;;;8.98;4.18;;;;;;;;;;6099116;19;20042;-70
2022/12/20 07:11:56;;;;;;;7.93;4.00;;;;;;;;;;6098948;19;20033;-70
2022/12/20 07:14:00;;;;;;;5.57;3.60;;;;;;;;;;6096370;19;20007;-69
2022/12/20 07:16:06;;;;;;;9.95;4.45;;;;;;;;;;6097285;19;20074;-69
2022/12/20 07:18:11;;;;;;;9.63;3.95;;;;;;;;;;6095117;19;20546;-72
2022/12/20 07:20:16;;;;;;;7.10;3.90;;;;;;;;;;6095885;19;20102;-71
2022/12/20 07:22:21;;;;;;;7.47;4.20;;;;;;;;;;6095438;19;20274;-71
2022/12/20 07:24:25;;;;;;;10.10;4.25;;;;;;;;;;6097617;19;20345;-71
2022/12/20 07:26:30;;;;;;;6.57;3.50;;;;;;;;;;6095284;19;20007;-70
2022/12/20 07:28:38;;;;;;;5.50;3.35;;;;;;;;;;6093041;19;20032;-71
2022/12/20 07:30:43;;;;;;;9.55;4.97;;;;;;;;;;6093530;19;20630;-71
2022/12/20 07:32:48;;;;;;;6.45;3.47;;;;;;;;;;6096516;19;20582;-71
2022/12/20 07:34:53;;;;;;;7.88;3.65;;;;;;;;;;6096268;19;20037;-71
2022/12/20 07:36:58;;;;;;;8.75;3.95;;;;;;;;;;6099028;19;20010;-69
2022/12/20 07:39:02;;;;;;;10.32;3.83;;;;;;;;;;6099339;19;20090;-70
2022/12/20 07:41:09;;;;;;;10.63;4.40;;;;;;;;;;6098326;19;20019;-70
2022/12/20 07:43:14;;;;;;;7.53;3.63;;;;;;;;;;6099442;19;20045;-70
2022/12/20 07:45:22;;;;;;;8.68;4.15;;;;;;;;;;6096641;19;20003;-70
2022/12/20 07:47:26;;;;;;;7.75;4.35;;;;;;;;;;6096415;19;20011;-70
2022/12/20 07:49:32;;;;;;;9.80;4.32;;;;;;;;;;6099599;19;20007;-70
2022/12/20 07:51:38;;;;;;;6.47;3.80;;;;;;;;;;6096004;19;20447;-70
2022/12/20 07:53:47;;;;;;;11.13;3.90;;;;;;;;;;6093328;19;20011;-69
2022/12/20 07:55:52;;;;;;;7.78;4.25;;;;;;;;;;6095702;19;20021;-69
2022/12/20 07:57:59;;;;;;;7.13;4.22;;;;;;;;;;6099598;19;20002;-71
2022/12/20 08:00:06;;;;;;;9.43;4.15;;;;;;;;;;6099422;19;20527;-71
2022/12/20 08:02:16;;;;;;;6.15;3.47;;;;;;;;;;6098084;19;20015;-71
2022/12/20 08:04:23;;;;;;;9.88;4.35;;;;;;;;;;6099214;19;20023;-72
2022/12/20 08:06:28;;;;;;;6.95;4.28;;;;;;;;;;6102484;19;20042;-72
2022/12/20 08:08:34;;;;;;;8.10;4.00;;;;;;;;;;6101994;19;20483;-72
2022/12/20 08:10:40;;;;;;;6.75;3.35;;;;;;;;;;6101338;19;20070;-72
2022/12/20 08:12:46;;;;;;;6.78;3.08;;;;;;;;;;6102612;19;20027;-72
2022/12/20 08:14:55;;;;;;;7.57;3.58;;;;;;;;;;6096811;19;20006;-73
2022/12/20 08:17:00;;;;;;;8.60;4.40;;;;;;;;;;6096607;19;20010;-73
2022/12/20 08:19:07;;;;;;;9.65;3.95;;;;;;;;;;6102188;19;20372;-72
2022/12/20 08:21:13;;;;;;;7.88;3.72;;;;;;;;;;6101360;19;20022;-72
2022/12/20 08:23:18;;;;;;;8.93;3.63;;;;;;;;;;6100117;19;20018;-72
2022/12/20 08:25:23;;;;;;;7.75;3.58;;;;;;;;;;6101668;19;20105;-71
2022/12/20 08:27:28;;;;;;;7.32;4.10;;;;;;;;;;6103140;19;20011;-71
2022/12/20 08:29:33;;;;;;;6.82;3.63;;;;;;;;;;6102711;19;20086;-71
2022/12/20 08:31:39;;;;;;;9.13;3.80;;;;;;;;;;6102419;19;20112;-72
2022/12/20 08:33:55;;;;;;;11.80;3.85;;;;;;;;;;6101276;19;20255;-73
2022/12/20 08:36:05;;;;;;;6.05;3.17;;;;;;;;;;6102040;19;20037;-72
2022/12/20 08:38:10;;;;;;;9.60;4.13;;;;;;;;;;6099653;19;20003;-71
2022/12/20 08:40:17;;;;;;;7.88;4.28;;;;;;;;;;6100850;19;20011;-72
2022/12/20 08:42:21;;;;;;;7.80;3.88;;;;;;;;;;6100665;19;20481;-72
2022/12/20 08:44:26;;;;;;;9.77;4.05;;;;;;;;;;6101835;19;20074;-72
2022/12/20 08:46:31;;;;;;;7.43;3.53;;;;;;;;;;6101614;19;20017;-72
2022/12/20 08:48:36;;;;;;;6.95;3.45;;;;;;;;;;6100762;19;20011;-72
2022/12/20 08:50:41;;;;;;;11.20;3.97;;;;;;;;;;6098712;19;20491;-72
2022/12/20 08:52:49;;;;;;;7.97;4.00;;;;;;;;;;6097411;19;20458;-72
2022/12/20 08:54:54;;;;;;;7.03;3.80;;;;;;;;;;6099139;19;20568;-71
2022/12/20 08:56:59;;;;;;;7.68;3.60;;;;;;;;;;6099166;19;20126;-72
2022/12/20 08:59:03;;;;;;;7.50;3.35;;;;;;;;;;6102533;19;20413;-71
2022/12/20 09:01:10;;;;;;;5.60;3.45;;;;;;;;;;6094452;19;20526;-70
2022/12/20 09:03:16;;;;;;;7.38;3.83;;;;;;;;;;6100923;19;20010;-73
2022/12/20 09:05:20;;;;;;;10.93;4.35;;;;;;;;;;6099053;19;20028;-70
2022/12/20 09:07:25;;;;;;;11.00;5.13;;;;;;;;;;6098107;19;20017;-70
2022/12/20 09:09:33;;;;;;;9.57;4.10;;;;;;;;;;6099802;19;20026;-69
2022/12/20 09:11:38;;;;;;;10.52;4.50;;;;;;;;;;6099379;19;20038;-69
2022/12/20 09:13:44;;;;;;;8.25;4.03;;;;;;;;;;6101453;19;20017;-69
2022/12/20 09:15:48;;;;;;;8.52;4.10;;;;;;;;;;6101456;19;20014;-69
2022/12/20 09:17:54;;;;;;;7.25;3.92;;;;;;;;;;6100773;19;20011;-69
2022/12/20 09:19:59;;;;;;;8.18;4.45;;;;;;;;;;6101787;19;20822;-69
2022/12/20 09:22:03;;;;;;;9.13;4.22;;;;;;;;;;6101381;19;20603;-69
2022/12/20 09:24:09;;;;;;;8.55;4.25;;;;;;;;;;6098795;19;20037;-71
2022/12/20 09:26:18;;;;;;;7.75;3.75;;;;;;;;;;6099080;19;20021;-71
2022/12/20 09:28:24;;;;;;;13.57;4.75;;;;;;;;;;6098488;19;20014;-71
2022/12/20 09:30:28;;;;;;;11.40;4.45;;;;;;;;;;6097934;19;20006;-71
2022/12/20 09:32:33;;;;;;;9.18;4.18;;;;;;;;;;6096924;19;20113;-73
2022/12/20 09:34:38;;;;;;;10.73;4.07;;;;;;;;;;6098186;19;20164;-72
2022/12/20 09:36:44;;;;;;;7.65;4.90;;;;;;;;;;6096367;19;20416;-73
2022/12/20 09:38:50;;;;;;;8.40;4.13;;;;;;;;;;6098057;19;20020;-71
2022/12/20 09:40:56;;;;;;;9.77;4.18;;;;;;;;;;6095541;19;20007;-70
2022/12/20 09:43:04;;;;;;;7.53;4.40;;;;;;;;;;6097161;19;20007;-70
2022/12/20 09:45:11;;;;;;;10.40;4.22;;;;;;;;;;6099806;19;20014;-72
2022/12/20 09:47:18;;;;;;;7.40;3.83;;;;;;;;;;6102529;19;20003;-72
2022/12/20 09:49:27;;;;;;;8.63;4.13;;;;;;;;;;6104510;19;20010;-72
2022/12/20 09:51:44;;;;;;;7.90;4.03;;;;;;;;;;6104026;19;20110;-72
2022/12/20 09:53:56;;;;;;;10.68;4.40;;;;;;;;;;6100546;19;20368;-71
2022/12/20 09:56:04;;;;;;;10.95;4.70;;;;;;;;;;6105512;19;20129;-70
2022/12/20 09:58:27;;;;;;;11.60;6.20;;;;;;;;;;6103854;19;20025;-70
2022/12/20 10:00:37;;;;;;;10.30;3.97;;;;;;;;;;6101862;19;20006;-71
2022/12/20 10:02:42;;;;;;;7.35;3.85;;;;;;;;;;6099058;19;20029;-71
2022/12/20 10:05:11;;;;;;;9.45;4.47;;;;;;;;;;6102271;19;20014;-72
2022/12/20 10:07:27;;;;;;;11.90;4.57;;;;;;;;;;6106033;19;20007;-68
2022/12/20 10:09:48;;;;;;;8.82;4.05;;;;;;;;;;6106836;19;20471;-68
2022/12/20 10:12:02;;;;;;;8.43;4.40;;;;;;;;;;6106758;19;20011;-68
2022/12/20 10:14:17;;;;;;;8.32;4.10;;;;;;;;;;6103970;19;20010;-68
2022/12/20 10:16:36;;;;;;;10.95;5.45;;;;;;;;;;6104469;19;20475;-70
2022/12/20 10:18:50;;;;;;;10.48;4.45;;;;;;;;;;6099210;19;20016;-71
2022/12/20 10:20:59;;;;;;;7.65;4.38;;;;;;;;;;6097193;19;20027;-68
2022/12/20 10:23:09;;;;;;;8.45;4.22;;;;;;;;;;6103687;19;20015;-68
2022/12/20 10:25:19;;;;;;;7.78;3.90;;;;;;;;;;6102056;19;20006;-68
2022/12/20 10:27:23;;;;;;;8.45;4.35;;;;;;;;;;6100951;19;20038;-68
2022/12/20 10:29:31;;;;;;;6.85;4.13;;;;;;;;;;6100354;19;20010;-68
2022/12/20 10:31:36;;;;;;;10.88;5.05;;;;;;;;;;6099863;19;20086;-69
2022/12/20 10:33:41;;;;;;;9.90;4.97;;;;;;;;;;6101069;19;20090;-68
2022/12/20 10:35:49;;;;;;;9.57;4.90;;;;;;;;;;6101896;19;20472;-68
2022/12/20 10:38:02;;;;;;;9.27;4.53;;;;;;;;;;6099514;19;20039;-68
2022/12/20 10:40:28;;;;;;;10.18;4.70;;;;;;;;;;6101478;19;20014;-69
2022/12/20 10:42:53;;;;;;;9.50;4.53;;;;;;;;;;6099943;19;20614;-72
2022/12/20 10:45:00;;;;;;;10.80;5.07;;;;;;;;;;6099838;19;20010;-70
2022/12/20 10:47:05;;;;;;;9.23;4.72;;;;;;;;;;6101058;19;20312;-68
2022/12/20 10:49:31;;;;;;;10.10;4.55;;;;;;;;;;6100732;19;20003;-69
2022/12/20 10:51:35;;;;;;;9.45;4.82;;;;;;;;;;6100086;19;20017;-70
2022/12/20 10:53:52;;;;;;;12.45;4.63;;;;;;;;;;6098189;19;20028;-69
2022/12/20 10:56:15;;;;;;;12.75;5.18;;;;;;;;;;6100043;19;20010;-69
2022/12/20 10:58:25;;;;;;;8.73;4.60;;;;;;;;;;6101044;19;20021;-69
2022/12/20 11:00:33;;;;;;;8.52;4.70;;;;;;;;;;6096221;19;20022;-69
2022/12/20 11:02:40;;;;;;;11.25;5.50;;;;;;;;;;6101624;19;20021;-69
2022/12/20 11:04:59;;;;;;;9.98;5.28;;;;;;;;;;6098755;19;20396;-69
2022/12/20 11:07:24;;;;;;;7.57;4.15;;;;;;;;;;6095389;19;20007;-69
2022/12/20 11:09:32;;;;;;;10.15;4.70;;;;;;;;;;6100039;19;20469;-69
2022/12/20 11:11:37;;;;;;;9.82;5.78;;;;;;;;;;6103675;19;20579;-71
2022/12/20 11:13:42;;;;;;;7.88;4.93;;;;;;;;;;6103086;19;20031;-70
2022/12/20 11:15:54;;;;;;;11.00;5.25;;;;;;;;;;6100225;19;20010;-71
2022/12/20 11:18:02;;;;;;;11.77;5.40;;;;;;;;;;6101000;19;20334;-70
2022/12/20 11:20:22;;;;;;;9.93;5.68;;;;;;;;;;6101246;19;20010;-72
2022/12/20 11:22:36;;;;;;;9.25;5.28;;;;;;;;;;6100736;19;20003;-71
2022/12/20 11:24:47;;;;;;;10.02;5.43;;;;;;;;;;6100608;19;20505;-69
2022/12/20 11:27:09;;;;;;;12.25;5.22;;;;;;;;;;6096650;19;20010;-69
2022/12/20 11:29:32;;;;;;;13.55;5.70;;;;;;;;;;6100614;19;20010;-70
2022/12/20 11:31:46;;;;;;;9.88;5.07;;;;;;;;;;6104836;19;20010;-69
2022/12/20 11:34:05;;;;;;;12.45;5.90;;;;;;;;;;6105429;19;20017;-69
2022/12/20 11:36:15;;;;;;;11.13;5.65;;;;;;;;;;6103727;19;20143;-69
2022/12/20 11:38:34;;;;;;;9.77;5.68;;;;;;;;;;6104546;19;20022;-69
2022/12/20 11:40:44;;;;;;;12.88;6.60;;;;;;;;;;6102890;19;20021;-69
2022/12/20 11:42:56;;;;;;;10.27;5.88;;;;;;;;;;6106301;19;20014;-69
2022/12/20 11:45:08;;;;;;;10.43;5.43;;;;;;;;;;6107285;19;20019;-69
2022/12/20 11:47:34;;;;;;;11.23;5.17;;;;;;;;;;6109272;19;20431;-70
2022/12/20 11:50:03;;;;;;;11.75;6.07;;;;;;;;;;6108801;19;20086;-70
2022/12/20 11:52:16;;;;;;;12.43;6.32;;;;;;;;;;6106250;19;20393;-70
2022/12/20 11:54:23;;;;;;;11.63;6.00;;;;;;;;;;6106230;19;20010;-71
2022/12/20 11:56:32;;;;;;;11.40;6.03;;;;;;;;;;6109541;19;20010;-68
2022/12/20 11:58:53;;;;;;;11.43;6.15;;;;;;;;;;6110416;19;20023;-69
2022/12/20 12:01:01;;;;;;;9.98;5.82;;;;;;;;;;6101302;19;20032;-68
2022/12/20 12:03:16;;;;;;;10.55;6.05;;;;;;;;;;6103971;19;20018;-68
2022/12/20 12:05:25;;;;;;;11.80;5.88;;;;;;;;;;6104713;19;20026;-69
2022/12/20 12:07:33;;;;;;;12.35;6.50;;;;;;;;;;6106209;19;20006;-70
2022/12/20 12:09:40;;;;;;;12.48;6.35;;;;;;;;;;6105365;19;20042;-69
2022/12/20 12:11:50;;;;;;;10.70;6.70;;;;;;;;;;6104450;19;20031;-71
2022/12/20 12:14:18;;;;;;;11.02;6.15;;;;;;;;;;6105039;19;20349;-69
2022/12/20 12:16:27;;;;;;;11.57;6.50;;;;;;;;;;6109107;19;20019;-69
2022/12/20 12:18:36;;;;;;;12.18;6.78;;;;;;;;;;6108489;19;20316;-69
2022/12/20 12:20:50;;;;;;;12.20;7.18;;;;;;;;;;6107418;19;20460;-69
2022/12/20 12:22:57;;;;;;;11.23;7.00;;;;;;;;;;6104357;19;20014;-69
2022/12/20 12:25:05;;;;;;;13.93;7.60;;;;;;;;;;6107766;19;20015;-69
2022/12/20 12:27:17;;;;;;;15.68;7.65;;;;;;;;;;6109217;19;20109;-70
2022/12/20 12:29:22;;;;;;;14.90;7.70;;;;;;;;;;6107942;19;20010;-70
2022/12/20 12:31:31;;;;;;;13.63;7.72;;;;;;;;;;6107372;19;20085;-69
2022/12/20 12:33:43;;;;;;;14.48;7.50;;;;;;;;;;6104570;19;20042;-70
2022/12/20 12:36:03;;;;;;;14.50;7.30;;;;;;;;;;6108132;19;19999;-70
2022/12/20 12:38:24;;;;;;;13.73;8.02;;;;;;;;;;6105036;19;20015;-70
2022/12/20 12:40:51;;;;;;;13.82;6.93;;;;;;;;;;6106854;19;20380;-70
2022/12/20 12:43:28;;;;;;;10.85;7.47;;;;;;;;;;6101361;19;20095;-70
2022/12/20 12:45:37;;;;;;;13.25;6.70;;;;;;;;;;6107451;19;20491;-71
2022/12/20 12:47:48;;;;;;;12.57;7.72;;;;;;;;;;6100503;19;20151;-71
2022/12/20 12:49:56;;;;;;;12.30;7.22;;;;;;;;;;6106120;19;20082;-71
2022/12/20 12:52:03;;;;;;;10.80;7.70;;;;;;;;;;6104607;19;20119;-71